createdAt,value
2019-06-15T00:00:31.045Z,6.40
2019-06-15T00:03:00.600Z,6.30
2019-06-15T00:05:30.169Z,6.67
2019-06-15T00:07:59.645Z,6.80
2019-06-15T00:10:29.158Z,6.00
2019-06-15T00:12:58.666Z,6.40
2019-06-15T00:15:28.142Z,7.00
2019-06-15T00:17:57.616Z,6.87
2019-06-15T00:20:27.258Z,7.40
2019-06-15T00:22:56.714Z,6.87
2019-06-15T00:25:26.220Z,7.37
2019-06-15T00:27:55.819Z,7.20
2019-06-15T00:30:25.433Z,8.80
2019-06-15T00:32:54.985Z,7.67
2019-06-15T00:35:24.482Z,7.63
2019-06-15T00:37:53.976Z,7.30
2019-06-15T00:40:23.533Z,7.83
2019-06-15T00:42:53.024Z,7.87
2019-06-15T00:45:22.364Z,8.27
2019-06-15T00:47:51.855Z,7.77
2019-06-15T00:50:21.277Z,7.63
2019-06-15T00:52:50.745Z,7.67
2019-06-15T00:55:20.276Z,7.83
2019-06-15T00:57:49.677Z,8.10
2019-06-15T01:00:19.489Z,9.47
2019-06-15T01:02:49.058Z,9.37
2019-06-15T01:05:20.080Z,8.57
2019-06-15T01:07:52.005Z,8.37
2019-06-15T01:10:21.711Z,9.47
2019-06-15T01:12:51.342Z,8.60
2019-06-15T01:15:21.364Z,8.63
2019-06-15T01:17:50.795Z,9.07
2019-06-15T01:20:20.548Z,9.17
2019-06-15T01:22:50.001Z,9.70
2019-06-15T01:25:20.390Z,9.10
2019-06-15T01:27:49.855Z,9.47
2019-06-15T01:30:19.705Z,8.40
2019-06-15T01:32:49.392Z,8.47
2019-06-15T01:35:19.161Z,7.53
2019-06-15T01:37:48.612Z,9.33
2019-06-15T01:40:18.728Z,10.20
2019-06-15T01:42:48.207Z,9.90
2019-06-15T01:45:20.948Z,9.83
2019-06-15T01:47:50.390Z,10.93
2019-06-15T01:50:19.887Z,10.37
2019-06-15T01:52:49.400Z,9.83
2019-06-15T01:55:21.130Z,11.13
2019-06-15T01:57:50.140Z,11.03
2019-06-15T02:00:23.064Z,11.93
2019-06-15T02:02:52.594Z,11.30
2019-06-15T02:05:23.780Z,11.33
2019-06-15T02:07:53.236Z,11.97
2019-06-15T02:10:28.997Z,11.03
2019-06-15T02:13:01.587Z,10.53
2019-06-15T02:15:31.194Z,11.23
2019-06-15T02:18:00.720Z,11.53
2019-06-15T02:20:30.296Z,11.80
2019-06-15T02:22:59.767Z,11.87
2019-06-15T02:25:36.352Z,13.73
2019-06-15T02:28:03.260Z,12.60
2019-06-15T02:30:35.086Z,10.40
2019-06-15T02:33:05.279Z,12.67
2019-06-15T02:35:34.739Z,12.57
2019-06-15T02:38:04.354Z,13.87
2019-06-15T02:40:33.989Z,13.90
2019-06-15T02:43:03.641Z,12.70
2019-06-15T02:45:33.128Z,11.83
2019-06-15T02:48:02.609Z,13.97
2019-06-15T02:50:32.995Z,13.43
2019-06-15T02:53:02.832Z,14.27
2019-06-15T02:55:32.418Z,14.17
2019-06-15T02:58:02.002Z,14.57
2019-06-15T03:00:38.829Z,14.87
2019-06-15T03:03:08.302Z,15.17
2019-06-15T03:05:38.556Z,16.83
2019-06-15T03:08:08.240Z,16.17
2019-06-15T03:10:37.807Z,17.03
2019-06-15T03:13:07.300Z,15.77
2019-06-15T03:15:36.766Z,15.43
2019-06-15T03:18:06.278Z,17.10
2019-06-15T03:20:35.788Z,16.97
2019-06-15T03:23:05.331Z,14.20
2019-06-15T03:25:34.860Z,14.97
2019-06-15T03:28:04.380Z,16.00
2019-06-15T03:30:33.907Z,17.10
2019-06-15T03:33:03.483Z,19.20
2019-06-15T03:35:32.956Z,21.80
2019-06-15T03:38:02.486Z,21.63
2019-06-15T03:40:31.966Z,22.13
2019-06-15T03:43:01.444Z,22.80
2019-06-15T03:45:30.901Z,22.17
2019-06-15T03:48:00.417Z,22.43
2019-06-15T03:50:29.924Z,22.67
2019-06-15T03:52:59.422Z,21.47
2019-06-15T03:55:28.980Z,22.40
2019-06-15T03:57:58.479Z,21.50
2019-06-15T04:00:44.590Z,23.67
2019-06-15T04:03:14.150Z,20.57
2019-06-15T04:05:44.184Z,24.07
2019-06-15T04:08:13.793Z,24.10
2019-06-15T04:10:43.370Z,22.40
2019-06-15T04:13:12.798Z,22.40
2019-06-15T04:15:42.287Z,24.37
2019-06-15T04:18:11.772Z,25.83
2019-06-15T04:20:41.277Z,26.33
2019-06-15T04:23:10.735Z,25.23
2019-06-15T04:25:40.190Z,26.60
2019-06-15T04:28:09.696Z,25.50
2019-06-15T04:30:39.209Z,28.50
2019-06-15T04:33:08.642Z,28.53
2019-06-15T04:35:38.141Z,26.23
2019-06-15T04:38:07.613Z,24.83
2019-06-15T04:40:37.113Z,30.17
2019-06-15T04:43:06.588Z,31.90
2019-06-15T04:45:36.063Z,28.67
2019-06-15T04:48:06.000Z,28.10
2019-06-15T04:50:35.489Z,23.90
2019-06-15T04:53:05.026Z,28.93
2019-06-15T04:55:34.499Z,28.97
2019-06-15T04:58:03.979Z,27.30
2019-06-15T05:00:33.475Z,27.90
2019-06-15T05:03:02.939Z,27.57
2019-06-15T05:05:32.415Z,25.33
2019-06-15T05:08:01.892Z,28.80
2019-06-15T05:10:31.393Z,24.00
2019-06-15T05:13:00.837Z,29.13
2019-06-15T05:15:30.347Z,30.43
2019-06-15T05:18:00.372Z,30.97
2019-06-15T05:20:29.868Z,30.17
2019-06-15T05:23:02.295Z,28.23
2019-06-15T05:25:31.774Z,28.40
2019-06-15T05:28:01.256Z,24.30
2019-06-15T05:30:30.747Z,23.03
2019-06-15T05:33:00.214Z,27.57
2019-06-15T05:35:29.777Z,26.90
2019-06-15T05:37:59.348Z,28.60
2019-06-15T05:40:28.782Z,27.63
2019-06-15T05:42:58.247Z,27.60
2019-06-15T05:45:27.723Z,27.03
2019-06-15T05:47:57.197Z,28.23
2019-06-15T05:50:26.691Z,27.20
2019-06-15T05:52:57.029Z,30.23
2019-06-15T05:55:26.541Z,29.27
2019-06-15T05:57:56.026Z,26.93
2019-06-15T06:00:27.032Z,28.07
2019-06-15T06:02:56.535Z,28.03
2019-06-15T06:05:26.031Z,24.97
2019-06-15T06:07:55.591Z,26.67
2019-06-15T06:10:25.112Z,24.00
2019-06-15T06:12:54.947Z,25.73
2019-06-15T06:15:26.782Z,26.40
2019-06-15T06:17:55.709Z,26.53
2019-06-15T06:20:25.276Z,25.67
2019-06-15T06:22:54.789Z,25.13
2019-06-15T06:25:24.359Z,24.30
2019-06-15T06:27:53.847Z,24.17
2019-06-15T06:30:23.513Z,24.30
2019-06-15T06:32:53.235Z,22.50
2019-06-15T06:35:22.719Z,21.10
2019-06-15T06:37:52.384Z,22.13
2019-06-15T06:40:22.209Z,21.20
2019-06-15T06:42:51.683Z,20.10
2019-06-15T06:45:21.493Z,22.27
2019-06-15T06:47:50.961Z,21.50
2019-06-15T06:50:21.177Z,22.70
2019-06-15T06:52:50.708Z,21.33
2019-06-15T06:55:20.335Z,20.87
2019-06-15T06:57:53.564Z,21.00
2019-06-15T07:00:21.275Z,18.03
2019-06-15T07:02:50.754Z,18.07
2019-06-15T07:05:20.241Z,15.20
2019-06-15T07:07:49.728Z,13.90
2019-06-15T07:10:19.301Z,13.93
2019-06-15T07:12:48.826Z,12.33
2019-06-15T07:15:18.551Z,13.53
2019-06-15T07:17:48.049Z,10.80
2019-06-15T07:20:17.887Z,11.97
2019-06-15T07:22:47.339Z,11.17
2019-06-15T07:25:16.891Z,11.30
2019-06-15T07:27:46.353Z,10.57
2019-06-15T07:30:16.422Z,12.00
2019-06-15T07:32:45.890Z,10.93
2019-06-15T07:35:15.523Z,10.20
2019-06-15T07:37:45.031Z,10.27
2019-06-15T07:40:14.886Z,9.30
2019-06-15T07:42:44.353Z,8.50
2019-06-15T07:45:14.745Z,8.47
2019-06-15T07:47:44.190Z,8.50
2019-06-15T07:50:13.992Z,9.37
2019-06-15T07:52:43.489Z,9.23
2019-06-15T07:55:12.934Z,9.53
2019-06-15T07:57:42.418Z,9.20
2019-06-15T08:00:13.461Z,8.80
2019-06-15T08:02:42.942Z,8.60
2019-06-15T08:05:12.761Z,9.87
2019-06-15T08:07:42.219Z,26.67
2019-06-15T08:10:12.085Z,27.50
2019-06-15T08:12:41.562Z,24.87
2019-06-15T08:15:12.024Z,25.53
2019-06-15T08:17:41.629Z,23.07
2019-06-15T08:20:14.142Z,22.93
2019-06-15T08:22:43.666Z,22.67
2019-06-15T08:25:13.449Z,22.27
2019-06-15T08:27:42.904Z,20.93
2019-06-15T08:30:14.178Z,22.77
2019-06-15T08:32:43.659Z,20.57
2019-06-15T08:35:13.640Z,21.70
2019-06-15T08:37:43.127Z,24.43
2019-06-15T08:40:14.299Z,24.53
2019-06-15T08:42:43.760Z,23.90
2019-06-15T08:45:13.372Z,15.30
2019-06-15T08:47:42.916Z,13.67
2019-06-15T08:50:12.994Z,14.37
2019-06-15T08:52:42.468Z,13.47
2019-06-15T08:55:12.375Z,11.93
2019-06-15T08:57:41.920Z,10.73
2019-06-15T09:00:12.024Z,11.03
2019-06-15T09:02:43.028Z,10.03
2019-06-15T09:05:12.747Z,8.37
2019-06-15T09:07:42.247Z,7.97
2019-06-15T09:10:12.166Z,7.83
2019-06-15T09:12:41.653Z,7.50
2019-06-15T09:15:12.348Z,6.50
2019-06-15T09:17:41.824Z,6.23
2019-06-15T09:20:12.821Z,5.80
2019-06-15T09:22:42.381Z,5.43
2019-06-15T09:25:11.999Z,5.00
2019-06-15T09:27:41.486Z,4.50
2019-06-15T09:30:11.457Z,3.87
2019-06-15T09:32:40.945Z,3.80
2019-06-15T09:35:10.768Z,4.07
2019-06-15T09:37:40.453Z,4.10
2019-06-15T09:40:10.465Z,4.83
2019-06-15T09:42:40.036Z,4.10
2019-06-15T09:45:10.772Z,4.20
2019-06-15T09:47:40.317Z,4.07
2019-06-15T09:50:10.142Z,3.90
2019-06-15T09:52:39.625Z,3.47
2019-06-15T09:55:10.193Z,3.03
2019-06-15T09:57:39.693Z,3.00
2019-06-15T10:00:12.782Z,3.03
2019-06-15T10:02:42.384Z,3.30
2019-06-15T10:05:12.275Z,3.40
2019-06-15T10:07:41.821Z,3.60
2019-06-15T10:10:12.216Z,3.73
2019-06-15T10:12:41.698Z,3.60
2019-06-15T10:15:13.720Z,4.53
2019-06-15T10:17:43.198Z,4.80
2019-06-15T10:20:13.902Z,5.03
2019-06-15T10:22:43.411Z,5.60
2019-06-15T10:25:14.316Z,5.37
2019-06-15T10:27:43.890Z,5.63
2019-06-15T10:30:14.080Z,4.97
2019-06-15T10:32:43.585Z,4.80
2019-06-15T10:35:13.657Z,5.10
2019-06-15T10:37:43.152Z,4.87
2019-06-15T10:40:14.430Z,6.07
2019-06-15T10:42:43.924Z,5.60
2019-06-15T10:45:14.623Z,5.17
2019-06-15T10:47:44.083Z,4.27
2019-06-15T10:50:14.462Z,4.50
2019-06-15T10:52:43.946Z,4.13
2019-06-15T10:55:13.724Z,4.10
2019-06-15T10:57:43.231Z,4.10
2019-06-15T11:00:13.815Z,3.97
2019-06-15T11:02:43.474Z,2.80
2019-06-15T11:05:17.567Z,2.80
2019-06-15T11:07:47.068Z,3.53
2019-06-15T11:10:32.728Z,4.27
2019-06-15T11:13:02.250Z,2.43
2019-06-15T11:15:31.790Z,2.70
2019-06-15T11:18:02.051Z,3.10
2019-06-15T11:20:31.545Z,3.03
2019-06-15T11:23:01.014Z,3.97
2019-06-15T11:25:30.507Z,3.10
2019-06-15T11:27:59.974Z,3.30
2019-06-15T11:30:29.459Z,3.00
2019-06-15T11:32:58.953Z,3.67
2019-06-15T11:35:28.450Z,3.77
2019-06-15T11:37:57.952Z,3.73
2019-06-15T11:40:27.459Z,3.80
2019-06-15T11:42:56.958Z,3.73
2019-06-15T11:45:26.436Z,4.13
2019-06-15T11:47:55.922Z,4.20
2019-06-15T11:50:25.395Z,3.83
2019-06-15T11:52:54.836Z,4.20
2019-06-15T11:55:38.639Z,4.23
2019-06-15T11:57:55.580Z,5.20
2019-06-15T12:00:31.555Z,4.50
2019-06-15T12:03:00.876Z,5.23
2019-06-15T12:05:30.375Z,7.53
2019-06-15T12:07:59.948Z,4.73
2019-06-15T12:10:29.414Z,5.60
2019-06-15T12:12:58.903Z,5.67
2019-06-15T12:15:28.500Z,5.30
2019-06-15T12:17:57.864Z,4.97
2019-06-15T12:20:27.388Z,4.77
2019-06-15T12:22:56.903Z,3.70
2019-06-15T12:25:26.443Z,3.93
2019-06-15T12:27:56.163Z,4.60
2019-06-15T12:30:47.125Z,4.40
2019-06-15T12:33:14.917Z,4.03
2019-06-15T12:35:44.402Z,3.77
2019-06-15T12:38:14.009Z,3.47
2019-06-15T12:40:43.597Z,3.37
2019-06-15T12:43:13.085Z,5.30
2019-06-15T12:45:42.604Z,3.80
2019-06-15T12:48:12.124Z,3.90
2019-06-15T12:50:41.732Z,3.50
2019-06-15T12:53:11.230Z,3.90
2019-06-15T12:55:40.696Z,4.50
2019-06-15T12:58:10.176Z,4.13
2019-06-15T13:00:39.852Z,3.83
2019-06-15T13:03:09.349Z,4.20
2019-06-15T13:05:38.827Z,4.10
2019-06-15T13:08:08.465Z,3.90
2019-06-15T13:10:39.487Z,6.47
2019-06-15T13:13:08.971Z,3.83
2019-06-15T13:15:38.481Z,4.27
2019-06-15T13:18:07.927Z,4.17
2019-06-15T13:20:37.433Z,4.53
2019-06-15T13:23:07.012Z,4.70
2019-06-15T13:25:36.491Z,4.80
2019-06-15T13:28:06.063Z,4.77
2019-06-15T13:30:35.727Z,5.20
2019-06-15T13:33:05.193Z,5.17
2019-06-15T13:35:34.905Z,5.53
2019-06-15T13:38:04.412Z,5.57
2019-06-15T13:40:33.974Z,6.10
2019-06-15T13:43:03.454Z,5.63
2019-06-15T13:45:32.969Z,5.93
2019-06-15T13:48:03.288Z,5.80
2019-06-15T13:50:32.735Z,6.53
2019-06-15T13:53:02.282Z,6.40
2019-06-15T13:55:31.750Z,7.33
2019-06-15T13:58:01.272Z,6.67
2019-06-15T14:00:30.816Z,7.17
2019-06-15T14:03:00.320Z,6.70
2019-06-15T14:05:29.796Z,9.03
2019-06-15T14:07:59.239Z,6.93
2019-06-15T14:10:28.747Z,8.50
2019-06-15T14:12:58.233Z,10.63
2019-06-15T14:15:27.687Z,8.97
2019-06-15T14:17:57.198Z,7.70
2019-06-15T14:20:26.707Z,7.10
2019-06-15T14:22:56.147Z,6.93
2019-06-15T14:25:25.635Z,8.00
2019-06-15T14:27:55.095Z,7.03
2019-06-15T14:30:24.656Z,6.87
2019-06-15T14:32:54.253Z,6.83
2019-06-15T14:35:23.744Z,7.60
2019-06-15T14:37:53.226Z,7.53
2019-06-15T14:40:22.730Z,8.97
2019-06-15T14:42:52.286Z,7.50
2019-06-15T14:45:22.331Z,8.23
2019-06-15T14:47:51.814Z,9.10
2019-06-15T14:50:21.301Z,8.30
2019-06-15T14:52:50.817Z,6.97
2019-06-15T14:55:20.414Z,6.97
2019-06-15T14:57:49.859Z,8.73
2019-06-15T15:00:19.966Z,6.87
2019-06-15T15:02:49.509Z,6.80
2019-06-15T15:05:19.074Z,7.40
2019-06-15T15:07:48.553Z,7.90
2019-06-15T15:10:18.524Z,7.50
2019-06-15T15:12:47.949Z,7.50
2019-06-15T15:15:17.624Z,5.90
2019-06-15T15:17:47.109Z,4.47
2019-06-15T15:20:17.470Z,3.90
2019-06-15T15:22:46.901Z,4.43
2019-06-15T15:25:17.180Z,3.60
2019-06-15T15:27:47.023Z,4.80
2019-06-15T15:30:27.268Z,4.57
2019-06-15T15:32:57.202Z,4.93
2019-06-15T15:35:27.056Z,3.70
2019-06-15T15:37:56.908Z,3.60
2019-06-15T15:40:27.380Z,3.47
2019-06-15T15:42:57.120Z,3.10
2019-06-15T15:45:26.597Z,4.20
2019-06-15T15:47:56.129Z,2.80
2019-06-15T15:50:26.255Z,3.10
2019-06-15T15:52:56.734Z,3.60
2019-06-15T15:55:26.743Z,3.20
2019-06-15T15:57:56.483Z,2.67
2019-06-15T16:00:32.953Z,2.83
2019-06-15T16:03:02.822Z,3.60
2019-06-15T16:05:32.489Z,2.67
2019-06-15T16:08:02.042Z,3.17
2019-06-15T16:10:31.576Z,2.97
2019-06-15T16:13:01.046Z,3.17
2019-06-15T16:15:30.641Z,3.00
2019-06-15T16:18:00.159Z,2.80
2019-06-15T16:20:29.611Z,2.97
2019-06-15T16:22:59.082Z,4.83
2019-06-15T16:25:28.546Z,3.13
2019-06-15T16:27:57.985Z,2.90
2019-06-15T16:30:59.870Z,4.53
2019-06-15T16:33:07.700Z,2.83
2019-06-15T16:35:36.254Z,3.13
2019-06-15T16:38:06.843Z,3.40
2019-06-15T16:40:40.955Z,3.00
2019-06-15T16:43:10.656Z,3.20
2019-06-15T16:45:40.279Z,3.37
2019-06-15T16:48:09.770Z,3.53
2019-06-15T16:50:39.300Z,3.00
2019-06-15T16:53:08.832Z,2.90
2019-06-15T16:55:38.328Z,2.97
2019-06-15T16:58:07.938Z,3.23
2019-06-15T17:00:37.445Z,3.03
2019-06-15T17:03:20.902Z,3.20
2019-06-15T17:05:38.341Z,2.83
2019-06-15T17:08:07.829Z,3.03
2019-06-15T17:10:40.861Z,2.60
2019-06-15T17:13:11.004Z,3.23
2019-06-15T17:15:40.724Z,3.60
2019-06-15T17:18:10.434Z,3.50
2019-06-15T17:20:53.415Z,3.60
2019-06-15T17:23:22.916Z,3.20
2019-06-15T17:25:52.440Z,3.40
2019-06-15T17:28:22.010Z,3.63
2019-06-15T17:30:51.511Z,4.03
2019-06-15T17:33:34.222Z,3.73
2019-06-15T17:36:02.215Z,3.77
2019-06-15T17:38:24.374Z,3.40
2019-06-15T17:40:57.121Z,5.03
2019-06-15T17:43:27.017Z,3.40
2019-06-15T17:45:56.825Z,3.30
2019-06-15T17:48:26.285Z,3.73
2019-06-15T17:50:57.206Z,3.47
2019-06-15T17:53:26.907Z,3.93
2019-06-15T17:55:56.359Z,3.83
2019-06-15T17:58:26.631Z,3.97
2019-06-15T18:00:57.477Z,3.80
2019-06-15T18:03:27.145Z,4.23
2019-06-15T18:05:58.309Z,3.73
2019-06-15T18:08:28.620Z,3.50
2019-06-15T18:10:58.238Z,3.37
2019-06-15T18:13:27.727Z,3.97
2019-06-15T18:15:57.200Z,4.23
2019-06-15T18:18:27.859Z,4.20
2019-06-15T18:20:57.465Z,4.50
2019-06-15T18:23:27.017Z,4.00
2019-06-15T18:25:56.477Z,3.77
2019-06-15T18:28:26.459Z,5.77
2019-06-15T18:30:56.204Z,4.97
2019-06-15T18:33:27.305Z,5.60
2019-06-15T18:35:56.934Z,5.23
2019-06-15T18:38:26.472Z,6.07
2019-06-15T18:40:56.353Z,6.20
2019-06-15T18:43:26.353Z,6.83
2019-06-15T18:45:56.771Z,7.70
2019-06-15T18:48:28.297Z,7.57
2019-06-15T18:50:57.751Z,8.43
2019-06-15T18:53:27.222Z,7.13
2019-06-15T18:55:57.064Z,9.50
2019-06-15T18:58:26.679Z,9.70
2019-06-15T19:00:56.271Z,8.90
2019-06-15T19:03:26.340Z,9.13
2019-06-15T19:05:56.908Z,8.90
2019-06-15T19:08:26.601Z,9.00
2019-06-15T19:10:56.381Z,9.23
2019-06-15T19:13:26.852Z,9.20
2019-06-15T19:15:57.259Z,10.23
2019-06-15T19:18:27.015Z,10.67
2019-06-15T19:20:56.494Z,10.83
2019-06-15T19:23:26.663Z,10.83
2019-06-15T19:25:57.374Z,10.60
2019-06-15T19:28:27.243Z,12.03
2019-06-15T19:30:56.751Z,10.90
2019-06-15T19:33:26.908Z,12.67
2019-06-15T19:35:57.890Z,14.10
2019-06-15T19:38:27.451Z,14.23
2019-06-15T19:40:56.972Z,14.50
2019-06-15T19:43:26.445Z,14.43
2019-06-15T19:45:56.646Z,14.93
2019-06-15T19:48:26.766Z,14.17
2019-06-15T19:50:56.882Z,14.57
2019-06-15T19:53:27.258Z,14.00
2019-06-15T19:55:57.513Z,14.33
2019-06-15T19:58:27.332Z,16.73
2019-06-15T20:00:56.903Z,15.03
2019-06-15T20:03:27.598Z,14.17
2019-06-15T20:05:57.188Z,14.83
2019-06-15T20:08:26.790Z,14.30
2019-06-15T20:10:56.575Z,15.07
2019-06-15T20:13:26.196Z,13.57
2019-06-15T20:15:57.211Z,14.83
2019-06-15T20:18:30.071Z,13.63
2019-06-15T20:20:58.128Z,14.17
2019-06-15T20:23:28.917Z,13.40
2019-06-15T20:25:58.446Z,12.27
2019-06-15T20:28:27.918Z,12.33
2019-06-15T20:30:57.405Z,11.53
2019-06-15T20:33:26.943Z,9.97
2019-06-15T20:35:57.454Z,12.80
2019-06-15T20:38:27.174Z,11.03
2019-06-15T20:40:56.778Z,9.43
2019-06-15T20:43:27.279Z,11.00
2019-06-15T20:45:57.159Z,10.13
2019-06-15T20:48:27.003Z,9.70
2019-06-15T20:50:56.909Z,10.00
2019-06-15T20:53:26.581Z,11.10
2019-06-15T20:55:57.021Z,11.30
2019-06-15T20:58:26.916Z,12.97
2019-06-15T21:00:56.544Z,12.70
2019-06-15T21:03:26.840Z,13.40
2019-06-15T21:05:57.441Z,13.53
2019-06-15T21:08:27.076Z,12.97
2019-06-15T21:10:56.597Z,14.03
2019-06-15T21:13:26.559Z,15.00
2019-06-15T21:15:56.817Z,13.80
2019-06-15T21:18:26.659Z,12.40
2019-06-15T21:20:56.373Z,14.40
2019-06-15T21:23:26.845Z,13.37
2019-06-15T21:25:57.139Z,13.50
2019-06-15T21:28:27.407Z,12.03
2019-06-15T21:30:57.042Z,11.73
2019-06-15T21:33:26.719Z,13.63
2019-06-15T21:35:56.849Z,12.17
2019-06-15T21:38:26.678Z,11.67
2019-06-15T21:40:57.052Z,11.93
2019-06-15T21:43:26.723Z,12.53
2019-06-15T21:45:56.977Z,11.30
2019-06-15T21:48:26.948Z,13.77
2019-06-15T21:50:59.206Z,14.60
2019-06-15T21:53:27.930Z,12.87
2019-06-15T21:55:57.474Z,13.53
2019-06-15T21:58:27.279Z,14.57
2019-06-15T22:01:19.618Z,13.80
2019-06-15T22:03:49.164Z,14.40
2019-06-15T22:06:19.381Z,12.83
2019-06-15T22:08:48.844Z,13.90
2019-06-15T22:11:18.527Z,13.90
2019-06-15T22:13:47.974Z,14.53
2019-06-15T22:16:17.521Z,12.33
2019-06-15T22:18:47.631Z,10.70
2019-06-15T22:21:17.148Z,14.47
2019-06-15T22:23:47.262Z,13.00
2019-06-15T22:26:17.328Z,10.53
2019-06-15T22:28:47.493Z,11.20
2019-06-15T22:31:17.280Z,13.83
2019-06-15T22:33:47.421Z,10.77
2019-06-15T22:36:24.872Z,12.90
2019-06-15T22:38:48.392Z,12.73
2019-06-15T22:41:18.014Z,12.77
2019-06-15T22:43:47.496Z,14.53
2019-06-15T22:46:16.981Z,16.10
2019-06-15T22:48:47.177Z,16.27
2019-06-15T22:51:17.196Z,15.43
2019-06-15T22:53:47.262Z,12.00
2019-06-15T22:56:17.211Z,15.50
2019-06-15T22:58:46.891Z,16.13
2019-06-15T23:01:17.049Z,17.40
2019-06-15T23:03:46.859Z,15.30
2019-06-15T23:06:16.701Z,15.97
2019-06-15T23:08:47.024Z,17.83
2019-06-15T23:11:17.454Z,17.73
2019-06-15T23:13:47.481Z,13.70
2019-06-15T23:16:17.051Z,15.63
2019-06-15T23:18:46.876Z,15.80
2019-06-15T23:21:17.240Z,18.40
2019-06-15T23:23:47.404Z,14.00
2019-06-15T23:26:17.026Z,14.67
2019-06-15T23:28:46.875Z,16.47
2019-06-15T23:31:16.861Z,15.73
2019-06-15T23:33:46.963Z,16.57
2019-06-15T23:36:18.325Z,16.03
2019-06-15T23:38:47.850Z,15.43
2019-06-15T23:41:17.386Z,16.27
2019-06-15T23:43:46.911Z,14.87
2019-06-15T23:46:16.363Z,15.83
2019-06-15T23:48:47.028Z,14.37
2019-06-15T23:51:17.111Z,14.67
2019-06-15T23:53:46.901Z,17.57
2019-06-15T23:56:16.392Z,16.33
2019-06-15T23:58:46.325Z,18.60
